Terminal Aerodrome Forecast
Issued by NWS

Home | Current Version | Previous Version | Text Only | Print | Product List | Glossary On
Versions: 1 2 3 4 5 6 7 8 9 10 11 12 13 14 15 16 17 18
000
FTUS45 KPSR 200500
TAFIPL
TAF
KIPL 200523Z 2006/2106 28012KT P6SM SCT200
     FM201800 VRB05KT P6SM SCT180
     FM202100 34006KT P6SM SCT180=

USA.gov is the U.S. government's official web portal to all federal, state and local government web resources and services.